createdAt,value
2018-09-28T00:00:46.546Z,61.91
2018-09-28T00:01:47.020Z,61.78
2018-09-28T00:02:47.496Z,61.77
2018-09-28T00:03:47.969Z,61.91
2018-09-28T00:04:48.444Z,61.80
2018-09-28T00:05:48.917Z,59.91
2018-09-28T00:06:49.393Z,58.98
2018-09-28T00:07:50.425Z,59.68
2018-09-28T00:08:50.340Z,59.26
2018-09-28T00:09:50.817Z,57.59
2018-09-28T00:10:51.290Z,56.93
2018-09-28T00:11:51.764Z,55.93
2018-09-28T00:12:52.237Z,54.60
2018-09-28T00:13:52.714Z,54.32
2018-09-28T00:14:53.186Z,53.92
2018-09-28T00:15:53.661Z,54.50
2018-09-28T00:16:54.148Z,56.39
2018-09-28T00:17:54.608Z,55.68
2018-09-28T00:18:55.081Z,56.08
2018-09-28T00:19:55.556Z,57.82
2018-09-28T00:20:56.030Z,55.59
2018-09-28T00:21:56.501Z,54.55
2018-09-28T00:22:56.975Z,55.44
2018-09-28T00:23:57.449Z,54.97
2018-09-28T00:24:57.920Z,54.33
2018-09-28T00:25:58.462Z,54.28
2018-09-28T00:26:58.867Z,54.40
2018-09-28T00:27:59.340Z,54.74
2018-09-28T00:28:59.810Z,54.74
2018-09-28T00:30:00.284Z,54.27
2018-09-28T00:31:00.756Z,53.98
2018-09-28T00:32:01.228Z,53.72
2018-09-28T00:33:01.700Z,53.28
2018-09-28T00:34:02.171Z,53.73
2018-09-28T00:35:02.646Z,53.08
2018-09-28T00:36:03.206Z,53.60
2018-09-28T00:37:03.589Z,52.47
2018-09-28T00:38:04.057Z,51.73
2018-09-28T00:39:04.529Z,51.43
2018-09-28T00:40:04.999Z,51.53
2018-09-28T00:41:05.471Z,52.18
2018-09-28T00:42:05.940Z,52.41
2018-09-28T00:43:06.415Z,52.74
2018-09-28T00:44:06.883Z,53.88
2018-09-28T00:45:07.352Z,54.01
2018-09-28T00:46:07.822Z,54.28
2018-09-28T00:47:08.292Z,54.85
2018-09-28T00:48:08.769Z,52.76
2018-09-28T00:49:09.232Z,48.69
2018-09-28T00:50:09.705Z,48.15
2018-09-28T00:51:10.175Z,47.73
2018-09-28T00:52:10.645Z,48.73
2018-09-28T00:53:11.115Z,48.94
2018-09-28T00:54:11.587Z,49.72
2018-09-28T00:55:12.056Z,50.50
2018-09-28T00:56:12.538Z,50.32
2018-09-28T00:57:12.996Z,51.06
2018-09-28T00:58:13.470Z,51.12
2018-09-28T00:59:13.939Z,51.62
2018-09-28T01:00:14.412Z,51.86
2018-09-28T01:01:14.880Z,52.44
2018-09-28T01:02:15.355Z,52.85
2018-09-28T01:03:15.823Z,53.38
2018-09-28T01:04:16.296Z,53.88
2018-09-28T01:05:16.767Z,52.99
2018-09-28T01:06:17.239Z,51.78
2018-09-28T01:07:17.711Z,52.49
2018-09-28T01:08:18.184Z,51.35
2018-09-28T01:09:18.659Z,47.18
2018-09-28T01:10:19.127Z,47.40
2018-09-28T01:11:19.601Z,46.30
2018-09-28T01:12:20.072Z,46.12
2018-09-28T01:13:20.545Z,45.72
2018-09-28T01:14:21.020Z,43.67
2018-09-28T01:15:21.493Z,42.05
2018-09-28T01:16:21.967Z,43.22
2018-09-28T01:17:22.440Z,43.41
2018-09-28T01:18:22.915Z,44.31
2018-09-28T01:19:23.388Z,47.24
2018-09-28T01:20:23.867Z,47.04
2018-09-28T01:21:24.341Z,45.90
2018-09-28T01:22:24.811Z,47.86
2018-09-28T01:23:25.340Z,49.80
2018-09-28T01:24:25.760Z,49.67
2018-09-28T01:25:26.240Z,48.12
2018-09-28T01:26:26.709Z,51.14
2018-09-28T01:27:27.181Z,50.92
2018-09-28T01:28:27.658Z,48.27
2018-09-28T01:29:28.131Z,48.42
2018-09-28T01:30:28.603Z,54.03
2018-09-28T01:31:29.080Z,55.57
2018-09-28T01:32:29.553Z,55.48
2018-09-28T01:33:30.027Z,54.69
2018-09-28T01:34:30.499Z,54.68
2018-09-28T01:35:30.975Z,51.44
2018-09-28T01:36:31.449Z,54.49
2018-09-28T01:37:31.923Z,55.30
2018-09-28T01:38:32.393Z,56.71
2018-09-28T01:39:32.868Z,56.65
2018-09-28T01:40:33.341Z,56.62
2018-09-28T01:41:33.814Z,52.47
2018-09-28T01:42:34.286Z,44.96
2018-09-28T01:43:34.758Z,46.45
2018-09-28T01:44:35.237Z,49.64
2018-09-28T01:45:35.702Z,47.24
2018-09-28T01:46:36.173Z,46.23
2018-09-28T01:47:36.646Z,47.15
2018-09-28T01:48:37.117Z,46.72
2018-09-28T01:49:37.590Z,48.55
2018-09-28T01:50:38.084Z,50.80
2018-09-28T01:51:38.534Z,52.46
2018-09-28T01:52:39.004Z,51.95
2018-09-28T01:53:39.473Z,50.50
2018-09-28T01:54:39.947Z,47.65
2018-09-28T01:55:40.418Z,46.40
2018-09-28T01:56:40.887Z,46.96
2018-09-28T01:57:41.357Z,44.80
2018-09-28T01:58:41.829Z,38.67
2018-09-28T01:59:42.301Z,38.55
2018-09-28T02:00:42.769Z,36.16
2018-09-28T02:01:43.239Z,37.98
2018-09-28T02:02:43.711Z,38.95
2018-09-28T02:03:44.181Z,36.88
2018-09-28T02:04:44.655Z,36.83
2018-09-28T02:05:45.120Z,38.69
2018-09-28T02:06:45.592Z,40.09
2018-09-28T02:07:46.066Z,39.20
2018-09-28T02:08:46.534Z,42.15
2018-09-28T02:09:47.008Z,44.18
2018-09-28T02:10:47.476Z,35.47
2018-09-28T02:11:47.948Z,37.59
2018-09-28T02:12:48.418Z,38.62
2018-09-28T02:13:48.889Z,39.17
2018-09-28T02:14:49.361Z,35.48
2018-09-28T02:15:49.855Z,38.17
2018-09-28T02:16:50.305Z,41.74
2018-09-28T02:17:50.782Z,42.01
2018-09-28T02:18:51.248Z,41.54
2018-09-28T02:19:51.722Z,43.17
2018-09-28T02:20:52.195Z,43.04
2018-09-28T02:21:52.667Z,43.57
2018-09-28T02:22:53.139Z,44.25
2018-09-28T02:23:53.613Z,44.78
2018-09-28T02:24:54.088Z,42.28
2018-09-28T02:25:54.558Z,43.47
2018-09-28T02:26:55.033Z,43.53
2018-09-28T02:27:55.511Z,41.52
2018-09-28T02:28:55.978Z,41.14
2018-09-28T02:29:56.453Z,41.84
2018-09-28T02:30:56.928Z,41.05
2018-09-28T02:31:57.400Z,41.33
2018-09-28T02:32:57.876Z,42.06
2018-09-28T02:33:58.354Z,41.99
2018-09-28T02:34:58.830Z,41.74
2018-09-28T02:35:59.300Z,42.47
2018-09-28T02:36:59.777Z,41.90
2018-09-28T02:38:00.246Z,42.28
2018-09-28T02:39:00.721Z,42.75
2018-09-28T02:40:01.198Z,43.06
2018-09-28T02:41:01.671Z,44.09
2018-09-28T02:42:02.142Z,43.59
2018-09-28T02:43:02.616Z,43.84
2018-09-28T02:44:03.088Z,43.16
2018-09-28T02:45:03.564Z,41.15
2018-09-28T02:46:04.041Z,40.97
2018-09-28T02:47:04.509Z,40.71
2018-09-28T02:48:04.995Z,38.28
2018-09-28T02:49:05.457Z,38.35
2018-09-28T02:50:05.928Z,39.51
2018-09-28T02:51:06.405Z,38.87
2018-09-28T02:52:06.886Z,38.24
2018-09-28T02:53:07.372Z,36.68
2018-09-28T02:54:07.818Z,37.56
2018-09-28T02:55:08.290Z,35.39
2018-09-28T02:56:08.764Z,34.14
2018-09-28T02:57:09.233Z,35.78
2018-09-28T02:58:09.705Z,35.03
2018-09-28T02:59:10.178Z,33.65
2018-09-28T03:00:10.652Z,34.08
2018-09-28T03:01:11.123Z,34.61
2018-09-28T03:02:11.590Z,32.43
2018-09-28T03:03:12.065Z,30.89
2018-09-28T03:04:12.532Z,32.90
2018-09-28T03:05:13.004Z,32.50
2018-09-28T03:06:13.498Z,31.97
2018-09-28T03:07:13.947Z,30.37
2018-09-28T03:08:14.414Z,28.07
2018-09-28T03:09:14.884Z,28.01
2018-09-28T03:10:15.354Z,29.10
2018-09-28T03:11:15.825Z,29.01
2018-09-28T03:12:16.296Z,28.57
2018-09-28T03:13:16.767Z,28.44
2018-09-28T03:14:17.489Z,28.91
2018-09-28T03:15:17.710Z,28.71
2018-09-28T03:16:18.176Z,27.31
2018-09-28T03:17:18.649Z,28.13
2018-09-28T03:18:19.118Z,28.27
2018-09-28T03:19:19.640Z,27.69
2018-09-28T03:20:20.065Z,27.62
2018-09-28T03:21:20.533Z,27.96
2018-09-28T03:22:21.004Z,28.57
2018-09-28T03:23:21.474Z,28.97
2018-09-28T03:24:21.947Z,29.04
2018-09-28T03:25:22.419Z,30.05
2018-09-28T03:26:22.888Z,30.51
2018-09-28T03:27:23.360Z,31.78
2018-09-28T03:28:23.833Z,30.58
2018-09-28T03:29:24.306Z,30.25
2018-09-28T03:30:24.780Z,31.05
2018-09-28T03:31:25.250Z,31.12
2018-09-28T03:32:25.724Z,32.94
2018-09-28T03:33:26.196Z,32.54
2018-09-28T03:34:26.666Z,33.10
2018-09-28T03:35:27.141Z,28.96
2018-09-28T03:36:27.615Z,27.83
2018-09-28T03:37:28.088Z,27.25
2018-09-28T03:38:28.562Z,26.68
2018-09-28T03:39:29.036Z,27.05
2018-09-28T03:40:29.552Z,26.48
2018-09-28T03:41:29.987Z,26.14
2018-09-28T03:42:30.457Z,26.31
2018-09-28T03:43:30.930Z,25.31
2018-09-28T03:44:31.404Z,26.14
2018-09-28T03:45:31.880Z,25.59
2018-09-28T03:46:32.353Z,27.20
2018-09-28T03:47:32.826Z,26.48
2018-09-28T03:48:33.304Z,26.00
2018-09-28T03:49:33.776Z,26.82
2018-09-28T03:50:34.249Z,26.55
2018-09-28T03:51:34.722Z,28.83
2018-09-28T03:52:35.198Z,30.57
2018-09-28T03:53:35.682Z,31.37
2018-09-28T03:54:36.143Z,32.80
2018-09-28T03:55:36.617Z,33.48
2018-09-28T03:56:37.092Z,33.77
2018-09-28T03:57:37.564Z,31.32
2018-09-28T03:58:38.041Z,32.15
2018-09-28T03:59:38.511Z,32.45
2018-09-28T04:00:38.983Z,35.61
2018-09-28T04:01:39.455Z,36.91
2018-09-28T04:02:39.928Z,37.29
2018-09-28T04:03:40.406Z,34.55
2018-09-28T04:04:40.871Z,35.41
2018-09-28T04:05:41.342Z,33.25
2018-09-28T04:06:41.815Z,36.72
2018-09-28T04:07:42.287Z,36.26
2018-09-28T04:08:42.758Z,35.57
2018-09-28T04:09:43.229Z,37.61
2018-09-28T04:10:43.698Z,35.41
2018-09-28T04:11:44.172Z,37.49
2018-09-28T04:12:44.640Z,40.49
2018-09-28T04:13:45.112Z,39.24
2018-09-28T04:14:45.683Z,38.96
2018-09-28T04:15:46.053Z,39.73
2018-09-28T04:16:46.525Z,38.76
2018-09-28T04:17:46.995Z,38.86
2018-09-28T04:18:47.464Z,39.15
2018-09-28T04:19:47.932Z,38.63
2018-09-28T04:20:48.402Z,39.50
2018-09-28T04:21:48.890Z,40.29
2018-09-28T04:22:49.344Z,40.73
2018-09-28T04:23:49.812Z,41.52
2018-09-28T04:24:50.283Z,41.48
2018-09-28T04:25:50.752Z,42.52
2018-09-28T04:26:51.224Z,39.60
2018-09-28T04:27:51.694Z,41.35
2018-09-28T04:28:52.167Z,40.76
2018-09-28T04:29:52.636Z,38.78
2018-09-28T04:30:53.105Z,37.05
2018-09-28T04:31:53.576Z,36.77
2018-09-28T04:32:54.046Z,36.77
2018-09-28T04:33:54.520Z,38.15
2018-09-28T04:34:54.988Z,39.37
2018-09-28T04:35:55.462Z,38.69
2018-09-28T04:36:55.931Z,36.18
2018-09-28T04:37:56.403Z,37.13
2018-09-28T04:38:56.875Z,37.74
2018-09-28T04:39:57.348Z,38.41
2018-09-28T04:40:57.818Z,38.77
2018-09-28T04:41:58.289Z,37.60
2018-09-28T04:42:58.765Z,37.22
2018-09-28T04:43:59.236Z,38.25
2018-09-28T04:44:59.715Z,38.76
2018-09-28T04:46:00.181Z,37.18
2018-09-28T04:47:00.653Z,37.80
2018-09-28T04:49:01.601Z,39.78
2018-09-28T04:50:02.074Z,39.84
2018-09-28T04:51:02.548Z,40.31
2018-09-28T04:52:03.019Z,41.38
2018-09-28T04:53:03.494Z,40.84
2018-09-28T04:54:03.967Z,41.56
2018-09-28T04:55:04.443Z,39.82
2018-09-28T04:56:04.916Z,39.57
2018-09-28T04:57:05.389Z,38.56
2018-09-28T04:58:05.867Z,38.63
2018-09-28T04:59:06.336Z,37.79
2018-09-28T05:00:06.813Z,38.08
2018-09-28T05:01:07.285Z,37.95
2018-09-28T05:02:07.759Z,38.56
2018-09-28T05:03:08.229Z,37.08
2018-09-28T05:04:08.703Z,35.58
2018-09-28T05:05:09.176Z,36.01
2018-09-28T05:06:09.651Z,37.99
2018-09-28T05:07:10.124Z,38.14
2018-09-28T05:08:10.595Z,37.07
2018-09-28T05:09:11.068Z,35.78
2018-09-28T05:10:11.540Z,34.60
2018-09-28T05:11:12.013Z,36.89
2018-09-28T05:12:12.484Z,36.37
2018-09-28T05:13:12.968Z,37.47
2018-09-28T05:14:13.428Z,36.95
2018-09-28T05:15:13.900Z,34.54
2018-09-28T05:16:14.371Z,33.16
2018-09-28T05:17:14.842Z,33.50
2018-09-28T05:18:15.313Z,32.63
2018-09-28T05:19:15.783Z,32.84
2018-09-28T05:20:16.254Z,34.02
2018-09-28T05:21:16.727Z,36.05
2018-09-28T05:22:17.197Z,36.43
2018-09-28T05:23:17.664Z,37.11
2018-09-28T05:24:18.137Z,36.11
2018-09-28T05:25:18.635Z,35.66
2018-09-28T05:26:19.080Z,36.37
2018-09-28T05:27:19.544Z,36.24
2018-09-28T05:28:20.017Z,35.59
2018-09-28T05:29:20.495Z,36.48
2018-09-28T05:30:20.959Z,35.66
2018-09-28T05:31:21.506Z,34.94
2018-09-28T05:32:22.039Z,35.08
2018-09-28T05:33:22.365Z,35.14
2018-09-28T05:34:22.835Z,34.88
2018-09-28T05:35:23.305Z,34.68
2018-09-28T05:36:23.816Z,35.80
2018-09-28T05:37:24.304Z,35.69
2018-09-28T05:38:24.718Z,34.58
2018-09-28T05:39:25.209Z,33.33
2018-09-28T05:40:25.655Z,34.94
2018-09-28T05:41:26.129Z,34.25
2018-09-28T05:42:26.599Z,32.13
2018-09-28T05:43:27.069Z,27.26
2018-09-28T05:44:27.540Z,32.77
2018-09-28T05:45:28.012Z,30.50
2018-09-28T05:46:28.528Z,31.40
2018-09-28T05:47:28.952Z,33.46
2018-09-28T05:48:29.425Z,34.68
2018-09-28T05:49:29.898Z,36.01
2018-09-28T05:50:30.369Z,38.66
2018-09-28T05:51:30.920Z,33.28
2018-09-28T05:52:31.315Z,33.61
2018-09-28T05:53:31.787Z,36.01
2018-09-28T05:54:32.262Z,34.11
2018-09-28T05:55:32.730Z,32.83
2018-09-28T05:56:33.203Z,29.35
2018-09-28T05:57:33.678Z,33.02
2018-09-28T05:58:34.210Z,30.69
2018-09-28T05:59:34.628Z,34.21
2018-09-28T06:00:35.100Z,33.05
2018-09-28T06:01:35.572Z,34.07
2018-09-28T06:02:36.046Z,33.01
2018-09-28T06:03:36.521Z,33.87
2018-09-28T06:04:36.994Z,34.27
2018-09-28T06:05:37.583Z,33.37
2018-09-28T06:06:37.948Z,30.74
2018-09-28T06:07:38.417Z,30.14
2018-09-28T06:08:38.891Z,31.81
2018-09-28T06:09:39.362Z,28.45
2018-09-28T06:10:39.846Z,30.54
2018-09-28T06:11:40.310Z,29.91
2018-09-28T06:12:40.784Z,29.74
2018-09-28T06:13:41.257Z,29.53
2018-09-28T06:14:41.750Z,31.21
2018-09-28T06:15:42.208Z,28.21
2018-09-28T06:16:42.677Z,30.74
2018-09-28T06:18:43.673Z,30.13
2018-09-28T06:19:44.100Z,27.80
2018-09-28T06:20:44.569Z,28.76
2018-09-28T06:21:45.042Z,26.35
2018-09-28T06:22:45.515Z,25.19
2018-09-28T06:23:45.990Z,22.59
2018-09-28T06:24:46.459Z,22.00
2018-09-28T06:25:46.970Z,20.57
2018-09-28T06:26:47.405Z,20.89
2018-09-28T06:27:47.874Z,19.76
2018-09-28T06:28:48.349Z,21.38
2018-09-28T06:29:48.833Z,22.91
2018-09-28T06:30:49.293Z,21.52
2018-09-28T06:31:49.761Z,24.30
2018-09-28T06:32:50.232Z,24.53
2018-09-28T06:33:50.703Z,25.32
2018-09-28T06:34:51.175Z,22.97
2018-09-28T06:35:51.694Z,24.95
2018-09-28T06:36:52.117Z,25.22
2018-09-28T06:37:52.586Z,25.09
2018-09-28T06:38:53.057Z,25.95
2018-09-28T06:39:53.526Z,26.02
2018-09-28T06:40:53.998Z,27.48
2018-09-28T06:41:54.536Z,29.40
2018-09-28T06:42:54.937Z,28.25
2018-09-28T06:43:55.410Z,25.93
2018-09-28T06:44:55.880Z,25.36
2018-09-28T06:45:56.350Z,27.17
2018-09-28T06:46:56.822Z,27.24
2018-09-28T06:47:57.339Z,28.01
2018-09-28T06:48:57.760Z,28.11
2018-09-28T06:49:58.233Z,29.12
2018-09-28T06:50:58.755Z,29.39
2018-09-28T06:51:59.175Z,30.60
2018-09-28T06:52:59.644Z,30.33
2018-09-28T06:55:00.589Z,30.06
2018-09-28T06:56:01.059Z,30.93
2018-09-28T06:57:01.532Z,31.63
2018-09-28T06:58:02.023Z,31.13
2018-09-28T06:59:02.473Z,31.33
2018-09-28T07:00:02.998Z,30.26
2018-09-28T07:01:03.418Z,30.53
2018-09-28T07:02:03.892Z,30.60
2018-09-28T07:03:04.365Z,30.53
2018-09-28T07:04:04.898Z,32.53
2018-09-28T07:05:05.309Z,31.73
2018-09-28T07:06:05.789Z,31.70
2018-09-28T07:07:06.259Z,31.93
2018-09-28T07:08:06.731Z,32.45
2018-09-28T07:09:07.204Z,31.79
2018-09-28T07:10:07.680Z,31.82
2018-09-28T07:11:08.157Z,31.96
2018-09-28T07:12:08.658Z,32.32
2018-09-28T07:13:09.102Z,33.58
2018-09-28T07:14:09.576Z,33.44
2018-09-28T07:15:10.051Z,33.44
2018-09-28T07:16:10.540Z,33.02
2018-09-28T07:17:11.001Z,32.65
2018-09-28T07:18:11.489Z,33.84
2018-09-28T07:19:11.955Z,33.25
2018-09-28T07:20:12.424Z,32.06
2018-09-28T07:21:12.897Z,32.12
2018-09-28T07:22:13.372Z,32.26
2018-09-28T07:23:13.847Z,32.72
2018-09-28T07:24:14.342Z,33.25
2018-09-28T07:25:14.886Z,30.99
2018-09-28T07:26:15.321Z,30.53
2018-09-28T07:27:15.742Z,29.66
2018-09-28T07:28:16.216Z,29.90
2018-09-28T07:29:16.691Z,30.14
2018-09-28T07:30:17.223Z,31.10
2018-09-28T07:31:17.637Z,30.76
2018-09-28T07:32:18.109Z,29.73
2018-09-28T07:33:18.583Z,29.33
2018-09-28T07:34:19.056Z,29.13
2018-09-28T07:35:19.531Z,28.66
2018-09-28T07:36:20.106Z,28.32
2018-09-28T07:37:20.603Z,28.59
2018-09-28T07:38:20.950Z,28.99
2018-09-28T07:39:21.420Z,29.20
2018-09-28T07:40:21.891Z,28.18
2018-09-28T07:41:22.414Z,29.00
2018-09-28T07:42:22.902Z,28.86
2018-09-28T07:43:23.309Z,29.03
2018-09-28T07:44:23.778Z,30.01
2018-09-28T07:45:24.250Z,30.34
2018-09-28T07:46:24.824Z,31.14
2018-09-28T07:47:25.200Z,34.25
2018-09-28T07:48:25.666Z,34.31
2018-09-28T07:49:26.141Z,30.26
2018-09-28T07:50:26.608Z,29.30
2018-09-28T07:51:27.078Z,29.87
2018-09-28T07:52:27.550Z,30.58
2018-09-28T07:53:28.024Z,30.68
2018-09-28T07:54:28.492Z,30.44
2018-09-28T07:55:28.962Z,30.21
2018-09-28T07:56:29.431Z,31.28
2018-09-28T07:57:29.904Z,32.48
2018-09-28T07:58:30.374Z,30.55
2018-09-28T07:59:30.846Z,29.88
2018-09-28T08:00:31.317Z,29.64
2018-09-28T08:01:31.786Z,31.75
2018-09-28T08:02:32.259Z,35.04
2018-09-28T08:03:32.728Z,32.93
2018-09-28T08:04:33.200Z,32.04
2018-09-28T08:05:33.673Z,30.88
2018-09-28T08:06:34.144Z,31.08
2018-09-28T08:07:34.616Z,31.78
2018-09-28T08:08:35.087Z,32.48
2018-09-28T08:09:35.558Z,31.21
2018-09-28T08:10:36.039Z,30.88
2018-09-28T08:11:36.503Z,31.78
2018-09-28T08:12:36.974Z,30.68
2018-09-28T08:13:37.447Z,31.11
2018-09-28T08:14:37.919Z,31.74
2018-09-28T08:15:38.392Z,32.61
2018-09-28T08:16:38.865Z,33.46
2018-09-28T08:17:39.340Z,33.13
2018-09-28T08:18:39.813Z,31.64
2018-09-28T08:19:40.287Z,29.84
2018-09-28T08:20:40.762Z,30.34
2018-09-28T08:21:41.234Z,30.81
2018-09-28T08:22:41.710Z,30.28
2018-09-28T08:23:42.183Z,32.51
2018-09-28T08:24:42.717Z,33.33
2018-09-28T08:25:43.132Z,33.72
2018-09-28T08:26:43.608Z,35.04
2018-09-28T08:27:44.083Z,35.89
2018-09-28T08:28:44.557Z,34.78
2018-09-28T08:29:45.036Z,36.08
2018-09-28T08:30:45.507Z,38.15
2018-09-28T08:31:45.983Z,32.40
2018-09-28T08:32:46.457Z,31.44
2018-09-28T08:33:46.931Z,35.44
2018-09-28T08:34:47.408Z,36.48
2018-09-28T08:35:47.881Z,37.26
2018-09-28T08:36:48.417Z,39.95
2018-09-28T08:37:48.832Z,38.09
2018-09-28T08:38:49.305Z,38.67
2018-09-28T08:39:49.781Z,38.45
2018-09-28T08:40:50.253Z,38.94
2018-09-28T08:41:50.731Z,38.89
2018-09-28T08:42:51.204Z,37.41
2018-09-28T08:43:51.677Z,33.36
2018-09-28T08:44:52.151Z,34.68
2018-09-28T08:45:52.626Z,38.21
2018-09-28T08:46:53.099Z,38.79
2018-09-28T08:47:53.572Z,39.94
2018-09-28T08:48:54.047Z,40.59
2018-09-28T08:49:54.519Z,43.21
2018-09-28T08:50:54.994Z,43.93
2018-09-28T08:51:55.467Z,45.95
2018-09-28T08:52:55.941Z,47.43
2018-09-28T08:53:56.412Z,47.46
2018-09-28T08:54:56.887Z,46.74
2018-09-28T08:55:57.361Z,46.39
2018-09-28T08:56:57.830Z,46.71
2018-09-28T08:57:58.303Z,47.11
2018-09-28T08:58:58.774Z,47.89
2018-09-28T08:59:59.250Z,46.01
2018-09-28T09:00:59.720Z,43.90
2018-09-28T09:02:00.218Z,45.05
2018-09-28T09:03:00.664Z,46.14
2018-09-28T09:04:01.137Z,47.19
2018-09-28T09:05:01.608Z,46.85
2018-09-28T09:06:02.082Z,46.07
2018-09-28T09:07:02.552Z,36.12
2018-09-28T09:08:03.024Z,37.22
2018-09-28T09:09:03.497Z,38.72
2018-09-28T09:10:03.969Z,38.45
2018-09-28T09:11:04.445Z,40.30
2018-09-28T09:12:04.911Z,39.42
2018-09-28T09:13:05.386Z,39.49
2018-09-28T09:14:05.853Z,40.70
2018-09-28T09:15:06.325Z,41.01
2018-09-28T09:16:06.796Z,41.70
2018-09-28T09:17:07.268Z,42.44
2018-09-28T09:18:07.823Z,43.05
2018-09-28T09:19:08.210Z,42.79
2018-09-28T09:20:08.685Z,42.52
2018-09-28T09:21:09.151Z,43.26
2018-09-28T09:22:09.622Z,40.52
2018-09-28T09:23:10.094Z,40.47
2018-09-28T09:24:10.566Z,40.54
2018-09-28T09:25:11.035Z,40.16
2018-09-28T09:26:11.507Z,40.89
2018-09-28T09:27:11.977Z,42.32
2018-09-28T09:28:12.449Z,40.56
2018-09-28T09:29:12.918Z,41.89
2018-09-28T09:30:13.422Z,43.40
2018-09-28T09:31:13.860Z,44.02
2018-09-28T09:32:14.333Z,44.63
2018-09-28T09:33:14.805Z,45.51
2018-09-28T09:34:15.276Z,46.51
2018-09-28T09:35:15.749Z,46.86
2018-09-28T09:36:16.219Z,47.45
2018-09-28T09:37:16.691Z,48.70
2018-09-28T09:38:17.164Z,49.41
2018-09-28T09:39:17.638Z,48.28
2018-09-28T09:40:18.112Z,47.90
2018-09-28T09:41:18.584Z,47.88
2018-09-28T09:42:19.060Z,46.92
2018-09-28T09:43:19.531Z,45.75
2018-09-28T09:44:20.004Z,46.43
2018-09-28T09:45:20.478Z,45.83
2018-09-28T09:46:20.957Z,47.39
2018-09-28T09:47:21.435Z,48.62
2018-09-28T09:48:21.951Z,48.23
2018-09-28T09:49:22.377Z,46.15
2018-09-28T09:50:22.852Z,46.40
2018-09-28T09:51:23.328Z,47.96
2018-09-28T09:52:23.804Z,43.09
2018-09-28T09:53:24.277Z,46.31
2018-09-28T09:54:24.752Z,47.86
2018-09-28T09:55:25.227Z,47.79
2018-09-28T09:56:25.703Z,45.99
2018-09-28T09:57:26.178Z,48.66
2018-09-28T09:58:26.654Z,48.63
2018-09-28T09:59:27.129Z,46.80
2018-09-28T10:00:27.604Z,48.78
2018-09-28T10:01:28.080Z,50.05
2018-09-28T10:02:28.603Z,51.26
2018-09-28T10:03:29.029Z,52.03
2018-09-28T10:04:29.504Z,52.58
2018-09-28T10:05:29.983Z,52.14
2018-09-28T10:06:30.456Z,52.66
2018-09-28T10:07:30.928Z,52.08
2018-09-28T10:08:31.403Z,51.88
2018-09-28T10:09:31.884Z,52.48
2018-09-28T10:10:32.353Z,53.34
2018-09-28T10:11:32.826Z,53.33
2018-09-28T10:12:33.424Z,45.99
2018-09-28T10:13:33.779Z,52.05
2018-09-28T10:14:34.249Z,43.76
2018-09-28T10:15:34.724Z,45.64
2018-09-28T10:16:35.201Z,51.05
2018-09-28T10:17:35.673Z,48.15
2018-09-28T10:18:36.146Z,52.44
2018-09-28T10:19:36.638Z,49.07
2018-09-28T10:20:37.094Z,50.49
2018-09-28T10:21:37.570Z,49.68
2018-09-28T10:22:38.042Z,48.66
2018-09-28T10:23:38.516Z,45.05
2018-09-28T10:24:38.997Z,42.48
2018-09-28T10:25:39.472Z,44.04
2018-09-28T10:26:39.988Z,43.68
2018-09-28T10:27:40.442Z,45.80
2018-09-28T10:28:40.962Z,40.68
2018-09-28T10:29:41.355Z,40.44
2018-09-28T10:30:41.828Z,40.70
2018-09-28T10:31:42.303Z,43.79
2018-09-28T10:32:42.775Z,42.02
2018-09-28T10:33:43.339Z,41.01
2018-09-28T10:34:43.802Z,45.03
2018-09-28T10:35:44.194Z,41.84
2018-09-28T10:36:44.667Z,43.80
2018-09-28T10:37:45.142Z,43.95
2018-09-28T10:38:45.613Z,40.97
2018-09-28T10:39:46.118Z,42.94
2018-09-28T10:40:46.813Z,43.42
2018-09-28T10:41:47.029Z,44.53
2018-09-28T10:42:47.501Z,46.45
2018-09-28T10:43:47.974Z,41.67
2018-09-28T10:44:48.447Z,40.02
2018-09-28T10:45:48.940Z,38.84
2018-09-28T10:46:49.396Z,40.63
2018-09-28T10:47:49.863Z,42.78
2018-09-28T10:48:50.336Z,44.72
2018-09-28T10:49:50.808Z,45.67
2018-09-28T10:50:51.284Z,45.61
2018-09-28T10:51:51.869Z,44.93
2018-09-28T10:52:52.247Z,46.29
2018-09-28T10:53:52.697Z,47.83
2018-09-28T10:54:53.168Z,45.33
2018-09-28T10:55:53.641Z,46.38
2018-09-28T10:56:54.115Z,51.47
2018-09-28T10:57:54.586Z,50.96
2018-09-28T10:58:55.130Z,49.98
2018-09-28T10:59:55.529Z,45.10
2018-09-28T11:00:56.001Z,49.31
2018-09-28T11:01:56.472Z,42.66
2018-09-28T11:02:56.942Z,43.18
2018-09-28T11:03:57.417Z,44.81
2018-09-28T11:04:57.888Z,48.25
2018-09-28T11:05:58.360Z,47.11
2018-09-28T11:06:58.836Z,47.26
2018-09-28T11:07:59.302Z,49.83
2018-09-28T11:08:59.840Z,45.92
2018-09-28T11:10:00.247Z,46.09
2018-09-28T11:11:00.718Z,46.64
2018-09-28T11:12:01.189Z,46.31
2018-09-28T11:13:01.662Z,47.64
2018-09-28T11:14:02.136Z,43.76
2018-09-28T11:15:02.605Z,42.84
2018-09-28T11:16:03.077Z,42.73
2018-09-28T11:17:03.547Z,44.36
2018-09-28T11:18:04.018Z,46.50
2018-09-28T11:19:04.599Z,48.32
2018-09-28T11:20:04.965Z,48.15
2018-09-28T11:21:05.436Z,47.83
2018-09-28T11:22:05.905Z,49.53
2018-09-28T11:23:06.376Z,48.73
2018-09-28T11:24:06.847Z,49.75
2018-09-28T11:25:07.320Z,46.78
2018-09-28T11:26:07.793Z,49.82
2018-09-28T11:27:08.268Z,50.13
2018-09-28T11:28:08.738Z,51.62
2018-09-28T11:29:09.206Z,52.65
2018-09-28T11:30:09.677Z,53.96
2018-09-28T11:31:10.151Z,53.93
2018-09-28T11:32:10.619Z,53.07
2018-09-28T11:33:11.104Z,51.10
2018-09-28T11:34:11.564Z,52.14
2018-09-28T11:35:12.034Z,51.93
2018-09-28T11:36:12.505Z,52.53
2018-09-28T11:37:12.977Z,54.22
2018-09-28T11:38:13.448Z,49.90
2018-09-28T11:39:13.957Z,51.52
2018-09-28T11:40:14.391Z,50.36
2018-09-28T11:41:14.862Z,52.20
2018-09-28T11:42:15.333Z,50.97
2018-09-28T11:43:15.891Z,54.22
2018-09-28T11:44:16.279Z,52.53
2018-09-28T11:45:16.794Z,50.84
2018-09-28T11:46:17.219Z,54.53
2018-09-28T11:47:17.688Z,55.00
2018-09-28T11:48:18.161Z,58.67
2018-09-28T11:49:18.634Z,60.00
2018-09-28T11:50:19.104Z,61.14
2018-09-28T11:51:19.639Z,60.33
2018-09-28T11:52:20.049Z,57.25
2018-09-28T11:53:20.619Z,58.00
2018-09-28T11:54:20.989Z,59.72
2018-09-28T11:55:21.464Z,58.67
2018-09-28T11:56:21.931Z,60.30
2018-09-28T11:57:22.460Z,58.61
2018-09-28T11:58:22.875Z,57.29
2018-09-28T11:59:23.347Z,59.18
2018-09-28T12:00:23.816Z,59.79
2018-09-28T12:01:24.288Z,57.40
2018-09-28T12:02:24.761Z,57.91
2018-09-28T12:03:25.321Z,58.34
2018-09-28T12:04:25.726Z,59.24
2018-09-28T12:05:26.234Z,56.15
2018-09-28T12:06:26.749Z,56.62
2018-09-28T12:07:27.168Z,57.29
2018-09-28T12:08:27.666Z,57.59
2018-09-28T12:09:28.118Z,59.35
2018-09-28T12:10:28.553Z,60.27
2018-09-28T12:11:29.019Z,57.33
2018-09-28T12:12:29.814Z,59.90
2018-09-28T12:13:30.084Z,59.64
2018-09-28T12:14:30.456Z,55.03
2018-09-28T12:15:31.153Z,54.29
2018-09-28T12:16:31.845Z,48.42
2018-09-28T12:17:31.860Z,54.93
2018-09-28T12:18:32.325Z,55.48
2018-09-28T12:19:32.794Z,58.42
2018-09-28T12:20:33.264Z,58.59
2018-09-28T12:21:33.959Z,58.97
2018-09-28T12:22:34.231Z,59.32
2018-09-28T12:23:35.812Z,60.34
2018-09-28T12:24:35.209Z,60.66
2018-09-28T12:25:35.649Z,64.44
2018-09-28T12:26:36.090Z,64.36
2018-09-28T12:27:36.782Z,65.29
2018-09-28T12:28:37.087Z,63.84
2018-09-28T12:29:37.536Z,65.25
2018-09-28T12:30:38.065Z,71.11
2018-09-28T12:31:38.431Z,70.03
2018-09-28T12:32:38.904Z,65.81
2018-09-28T12:33:39.428Z,65.97
2018-09-28T12:34:39.846Z,68.17
2018-09-28T12:35:40.433Z,71.98
2018-09-28T12:36:40.818Z,73.49
2018-09-28T12:37:41.262Z,72.63
2018-09-28T12:38:41.882Z,74.62
2018-09-28T12:39:42.312Z,75.09
2018-09-28T12:40:42.676Z,75.16
2018-09-28T12:42:43.680Z,77.38
2018-09-28T12:43:44.092Z,78.99
2018-09-28T12:44:44.604Z,78.09
2018-09-28T12:45:45.173Z,78.28
2018-09-28T12:46:45.504Z,79.07
2018-09-28T12:47:45.977Z,78.29
2018-09-28T12:48:46.457Z,77.62
2018-09-28T12:49:46.920Z,78.30
2018-09-28T12:50:47.429Z,78.14
2018-09-28T12:51:47.864Z,77.58
2018-09-28T12:52:48.333Z,75.32
2018-09-28T12:53:48.855Z,73.45
2018-09-28T12:54:49.326Z,75.07
2018-09-28T12:55:49.749Z,76.00
2018-09-28T12:56:50.292Z,74.59
2018-09-28T12:57:50.693Z,75.08
2018-09-28T12:58:51.164Z,77.27
2018-09-28T12:59:51.634Z,75.78
2018-09-28T13:00:52.187Z,75.46
2018-09-28T13:01:52.580Z,73.83
2018-09-28T13:02:53.130Z,73.12